Terminal Aerodrome Forecast
Issued by NWS Pittsburgh, PA

Current Version | Previous Version | Text Only | Print | Product List | Glossary Off
Versions: 1 2 3 4 5 6 7 8 9 10 11 12 13 14 15 16 17 18 19 20 21 22 23 24 25 26 27 28 29 30 31

000
FTUS41 KPBZ 231500 AAA
TAFPIT
TAF AMD
KPIT 231512Z 2315/2418 21004KT P6SM OVC017
     FM231630 VRB03KT P6SM SCT020 BKN150
     FM240300 VRB03KT P6SM -RASN OVC025
     FM240600 34002KT 2SM -SN OVC008
     FM240900 32003KT 4SM BR OVC015=

USA.gov is the U.S. government's official web portal to all federal, state and local government web resources and services.